Time;durP1;ratioP1;P1;durP2;ratioP2;P2;SDS_P1;SDS_P2;PMS_P1;PMS_P2;Temp;Humidity;BMP_temperature;BMP_pressure;BME280_temperature;BME280_humidity;BME280_pressure;Samples;Min_cycle;Max_cycle;Signal;HPM_P1;HPM_P2
2023/06/30 00:01:24;;;;;;;0.50;0.50;;;;;;;20.16;89.75;99400.19;5071446;28;20200;-65
2023/06/30 00:03:50;;;;;;;0.40;0.40;;;;;;;20.21;89.37;99403.28;5071508;28;20214;-65
2023/06/30 00:06:19;;;;;;;0.47;0.47;;;;;;;20.25;88.64;99403.00;5070451;28;20199;-65
2023/06/30 00:08:45;;;;;;;0.30;0.30;;;;;;;20.31;88.81;99401.75;5071388;28;20746;-65
2023/06/30 00:11:12;;;;;;;0.50;0.50;;;;;;;20.32;88.74;99399.03;5071097;28;20687;-65
2023/06/30 00:13:39;;;;;;;0.43;0.43;;;;;;;20.35;88.74;99395.41;5071396;28;20682;-65
2023/06/30 00:16:06;;;;;;;0.40;0.40;;;;;;;20.28;88.37;99392.41;5071452;28;20698;-65
2023/06/30 00:18:32;;;;;;;0.60;0.60;;;;;;;20.29;88.73;99403.66;5071511;28;20203;-64
2023/06/30 00:20:59;;;;;;;0.50;0.50;;;;;;;20.32;88.69;99390.41;5071330;28;20634;-65
2023/06/30 00:23:28;;;;;;;0.40;0.40;;;;;;;20.32;88.16;99393.81;5071240;28;20587;-65
2023/06/30 00:25:55;;;;;;;0.57;0.57;;;;;;;20.21;87.82;99369.47;5071279;28;20204;-65
2023/06/30 00:28:22;;;;;;;0.37;0.37;;;;;;;20.19;88.04;99384.38;5070824;28;20238;-64
2023/06/30 00:30:49;;;;;;;0.40;0.40;;;;;;;20.16;88.42;99397.59;5071109;28;20200;-65
2023/06/30 00:33:15;;;;;;;0.50;0.50;;;;;;;20.12;88.59;99385.72;5070945;28;20211;-64
2023/06/30 00:35:42;;;;;;;0.73;0.43;;;;;;;20.06;88.83;99384.38;5071162;28;20200;-64
2023/06/30 00:38:09;;;;;;;0.40;0.40;;;;;;;20.05;89.60;99387.91;5070724;28;20192;-64
2023/06/30 00:40:37;;;;;;;0.50;0.50;;;;;;;20.04;89.43;99398.41;5071259;28;20199;-64
2023/06/30 00:43:04;;;;;;;0.40;0.40;;;;;;;20.00;90.13;99394.38;5071062;28;20206;-64
2023/06/30 00:45:31;;;;;;;0.50;0.50;;;;;;;20.00;90.07;99397.00;5070747;28;20203;-64
2023/06/30 00:47:57;;;;;;;0.37;0.37;;;;;;;19.99;90.09;99405.72;5070796;28;20647;-64
2023/06/30 00:50:25;;;;;;;0.50;0.50;;;;;;;19.98;90.71;99401.44;5070760;28;20203;-64
2023/06/30 00:52:51;;;;;;;0.60;0.60;;;;;;;19.94;90.77;99398.22;5070821;28;20199;-64
2023/06/30 00:55:18;;;;;;;0.50;0.50;;;;;;;19.93;91.02;99393.97;5070693;28;20203;-64
2023/06/30 00:57:46;;;;;;;0.50;0.50;;;;;;;19.77;91.22;99401.16;5071247;28;20691;-64
2023/06/30 01:00:15;;;;;;;0.47;0.47;;;;;;;19.61;92.25;99398.72;5070624;28;20206;-64
2023/06/30 01:02:48;;;;;;;1.00;1.00;;;;;;;19.48;92.87;99390.09;5070764;28;20203;-64
2023/06/30 01:05:25;;;;;;;0.60;0.60;;;;;;;19.36;93.55;99388.25;5070644;28;20259;-65
2023/06/30 01:07:56;;;;;;;0.60;0.60;;;;;;;19.24;93.91;99391.69;5070744;28;20210;-64
2023/06/30 01:10:25;;;;;;;0.60;0.60;;;;;;;19.17;94.42;99391.25;5070838;28;20203;-64
2023/06/30 01:12:54;;;;;;;0.40;0.40;;;;;;;19.11;94.66;99375.22;5067227;28;20249;-64
2023/06/30 01:15:22;;;;;;;0.57;0.57;;;;;;;19.18;94.36;99385.13;5070608;28;20195;-64
2023/06/30 01:17:53;;;;;;;0.50;0.50;;;;;;;19.20;94.99;99387.59;5073759;28;20700;-64
2023/06/30 01:20:21;;;;;;;0.50;0.50;;;;;;;19.24;95.01;99387.31;5074618;28;20199;-65
2023/06/30 01:22:55;;;;;;;0.83;0.83;;;;;;;19.23;94.85;99393.44;5074507;28;20210;-65
2023/06/30 01:25:26;;;;;;;0.70;0.70;;;;;;;19.24;95.11;99386.47;5074345;28;20209;-64
2023/06/30 01:27:56;;;;;;;0.60;0.60;;;;;;;19.24;95.28;99386.47;5074220;28;20306;-65
2023/06/30 01:30:29;;;;;;;0.50;0.50;;;;;;;19.13;95.53;99368.16;5074186;28;20204;-64
2023/06/30 01:32:58;;;;;;;0.73;0.73;;;;;;;19.19;96.00;99367.78;5074343;28;20197;-65
2023/06/30 01:35:25;;;;;;;0.57;0.57;;;;;;;19.29;95.90;99387.00;5074293;28;20219;-65
2023/06/30 01:37:52;;;;;;;0.50;0.50;;;;;;;19.27;96.11;99381.09;5074288;28;20210;-64
2023/06/30 01:40:19;;;;;;;0.40;0.40;;;;;;;19.25;96.36;99377.75;5074311;28;20208;-65
2023/06/30 01:42:47;;;;;;;0.60;0.60;;;;;;;19.25;96.24;99378.59;5073942;28;20557;-64
2023/06/30 01:45:17;;;;;;;0.60;0.60;;;;;;;19.24;95.79;99381.28;5074117;28;20256;-65
2023/06/30 01:47:44;;;;;;;0.70;0.70;;;;;;;19.24;95.66;99376.09;5073582;28;20257;-64
2023/06/30 01:50:11;;;;;;;0.60;0.60;;;;;;;19.22;95.56;99372.78;5074099;28;20300;-64
2023/06/30 01:52:38;;;;;;;0.50;0.50;;;;;;;19.24;94.85;99370.88;5073851;28;20207;-64
2023/06/30 01:55:05;;;;;;;0.70;0.70;;;;;;;19.22;94.69;99371.00;5074079;28;20196;-65
2023/06/30 01:57:32;;;;;;;0.60;0.60;;;;;;;19.24;94.71;99378.69;5073702;28;20199;-64
2023/06/30 01:59:59;;;;;;;0.50;0.50;;;;;;;19.27;94.42;99375.88;5073918;28;20683;-65
2023/06/30 02:02:27;;;;;;;0.90;0.90;;;;;;;19.24;93.98;99376.09;5073683;28;20331;-64
2023/06/30 02:04:54;;;;;;;0.40;0.40;;;;;;;19.20;94.18;99374.63;5073824;28;20203;-65
2023/06/30 02:07:20;;;;;;;0.67;0.67;;;;;;;19.10;94.68;99370.94;5073715;28;20215;-64
2023/06/30 02:09:47;;;;;;;0.87;0.70;;;;;;;18.90;95.30;99367.06;5074104;28;20189;-64
2023/06/30 02:12:14;;;;;;;0.77;0.77;;;;;;;18.84;95.89;99372.63;5073679;28;20260;-64
2023/06/30 02:14:41;;;;;;;0.77;0.77;;;;;;;18.84;95.97;99377.84;5073494;28;20207;-64
2023/06/30 02:17:10;;;;;;;0.50;0.50;;;;;;;18.86;96.19;99371.63;5073906;28;20587;-64
2023/06/30 02:19:38;;;;;;;0.70;0.70;;;;;;;18.87;96.11;99372.44;5073688;28;20289;-64
2023/06/30 02:22:05;;;;;;;0.60;0.60;;;;;;;18.91;96.17;99378.28;5073552;28;20213;-64
2023/06/30 02:24:32;;;;;;;0.67;0.67;;;;;;;18.94;95.60;99378.06;5073504;28;20637;-64
2023/06/30 02:26:59;;;;;;;0.50;0.50;;;;;;;18.97;95.22;99377.88;5073118;28;20199;-64
2023/06/30 02:29:26;;;;;;;0.40;0.40;;;;;;;18.94;95.33;99383.28;5072267;28;20697;-64
2023/06/30 02:31:53;;;;;;;0.57;0.57;;;;;;;18.80;96.06;99392.78;5073253;28;20199;-64
2023/06/30 02:34:19;;;;;;;0.60;0.60;;;;;;;18.77;96.21;99387.78;5073186;28;20208;-64
2023/06/30 02:36:48;;;;;;;0.60;0.60;;;;;;;18.79;96.56;99391.13;5073126;28;20205;-64
2023/06/30 02:39:15;;;;;;;1.20;1.10;;;;;;;18.79;96.63;99385.09;5073250;28;20289;-64
2023/06/30 02:41:42;;;;;;;0.43;0.43;;;;;;;18.78;96.68;99392.06;5072834;28;20289;-64
2023/06/30 02:44:09;;;;;;;0.47;0.47;;;;;;;18.75;97.14;99392.25;5072968;28;20197;-64
2023/06/30 02:46:35;;;;;;;0.77;0.77;;;;;;;18.72;97.25;99396.81;5072931;28;20238;-64
2023/06/30 02:49:02;;;;;;;0.60;0.60;;;;;;;18.71;97.99;99398.56;5072613;28;20231;-64
2023/06/30 02:51:29;;;;;;;0.57;0.57;;;;;;;18.67;98.07;99391.94;5072889;28;20206;-65
2023/06/30 02:53:57;;;;;;;0.70;0.70;;;;;;;18.61;98.15;99381.91;5072575;28;20203;-64
2023/06/30 02:56:24;;;;;;;0.60;0.60;;;;;;;18.67;98.22;99391.09;5072883;28;20204;-64
2023/06/30 02:58:51;;;;;;;0.80;0.80;;;;;;;18.59;98.81;99394.16;5072540;28;20192;-64
2023/06/30 03:01:20;;;;;;;0.40;0.40;;;;;;;18.40;99.62;99379.78;5072638;28;20213;-64
2023/06/30 03:03:48;;;;;;;0.80;0.80;;;;;;;18.39;100.00;99391.94;5072634;28;20201;-64
2023/06/30 03:06:14;;;;;;;0.40;0.40;;;;;;;18.42;100.00;99396.13;5072509;28;20196;-64
2023/06/30 03:08:41;;;;;;;0.60;0.60;;;;;;;18.40;100.00;99388.41;5072663;28;20569;-64
2023/06/30 03:11:11;;;;;;;0.50;0.50;;;;;;;18.34;100.00;99387.03;5072488;28;20302;-64
2023/06/30 03:13:37;;;;;;;0.70;0.70;;;;;;;18.35;100.00;99393.06;5072789;28;20231;-65
2023/06/30 03:16:05;;;;;;;0.50;0.50;;;;;;;18.26;100.00;99383.22;5072318;28;20553;-64
2023/06/30 03:18:32;;;;;;;0.70;0.70;;;;;;;18.35;100.00;99391.28;5072250;28;20626;-64
2023/06/30 03:20:59;;;;;;;0.50;0.50;;;;;;;18.37;100.00;99393.78;5072043;28;20196;-64
2023/06/30 03:23:26;;;;;;;0.43;0.43;;;;;;;18.41;100.00;99397.03;5072329;28;20196;-64
2023/06/30 03:25:52;;;;;;;0.50;0.50;;;;;;;18.38;100.00;99396.28;5071920;28;20213;-64
2023/06/30 03:28:20;;;;;;;0.60;0.60;;;;;;;18.38;100.00;99392.88;5071870;28;20234;-64
2023/06/30 03:30:47;;;;;;;0.70;0.70;;;;;;;18.39;100.00;99397.13;5072028;28;20220;-64
2023/06/30 03:33:14;;;;;;;0.60;0.60;;;;;;;18.43;100.00;99388.22;5071828;28;20626;-64
2023/06/30 03:35:41;;;;;;;0.57;0.57;;;;;;;18.47;100.00;99397.50;5072220;28;20661;-64
2023/06/30 03:38:07;;;;;;;0.60;0.60;;;;;;;18.50;100.00;99393.91;5071971;28;20561;-64
2023/06/30 03:40:34;;;;;;;0.50;0.50;;;;;;;18.59;100.00;99399.34;5072152;28;20210;-64
2023/06/30 03:43:01;;;;;;;0.73;0.73;;;;;;;18.70;100.00;99402.13;5071853;28;20697;-64
2023/06/30 03:45:29;;;;;;;1.00;0.93;;;;;;;18.84;100.00;99403.81;5071866;28;20258;-64
2023/06/30 03:47:56;;;;;;;0.60;0.60;;;;;;;18.86;100.00;99383.78;5071597;28;20250;-64
2023/06/30 03:50:23;;;;;;;0.60;0.60;;;;;;;19.09;100.00;99396.13;5071614;28;20205;-64
2023/06/30 03:52:49;;;;;;;0.60;0.60;;;;;;;19.20;100.00;99398.00;5071729;28;20328;-64
2023/06/30 03:55:16;;;;;;;0.40;0.40;;;;;;;19.25;99.39;99395.97;5071629;28;20202;-64
2023/06/30 03:57:43;;;;;;;0.60;0.60;;;;;;;19.28;99.37;99403.56;5071716;28;20253;-64
2023/06/30 04:00:11;;;;;;;0.60;0.60;;;;;;;19.36;98.86;99401.25;5071597;28;20200;-64
2023/06/30 04:02:40;;;;;;;0.50;0.50;;;;;;;19.43;98.80;99394.75;5071663;28;20264;-64
2023/06/30 04:05:07;;;;;;;0.70;0.70;;;;;;;19.67;98.86;99400.94;5071314;28;20214;-64
2023/06/30 04:07:34;;;;;;;0.70;0.70;;;;;;;19.86;97.92;99392.72;5071686;28;20204;-64
2023/06/30 04:10:00;;;;;;;0.57;0.57;;;;;;;20.06;97.23;99396.56;5071306;28;20344;-65
2023/06/30 04:12:27;;;;;;;0.70;0.70;;;;;;;20.13;96.03;99371.78;5071205;28;20196;-64
2023/06/30 04:14:54;;;;;;;0.60;0.60;;;;;;;20.44;94.66;99392.16;5071387;28;20249;-64
2023/06/30 04:17:21;;;;;;;0.53;0.53;;;;;;;20.66;93.08;99402.69;5071159;28;20203;-64
2023/06/30 04:19:49;;;;;;;0.60;0.60;;;;;;;20.85;92.02;99407.41;5071486;28;20192;-65
2023/06/30 04:22:16;;;;;;;0.70;0.70;;;;;;;21.07;90.82;99406.69;5071149;28;20195;-64
2023/06/30 04:24:42;;;;;;;0.67;0.67;;;;;;;21.20;89.16;99397.06;5071284;28;20196;-64
2023/06/30 04:27:09;;;;;;;0.60;0.60;;;;;;;21.26;85.60;99404.44;5071231;28;20615;-64
2023/06/30 04:29:36;;;;;;;0.50;0.50;;;;;;;21.19;85.14;99411.06;5069718;28;20224;-64
2023/06/30 04:32:05;;;;;;;0.70;0.70;;;;;;;21.23;85.07;99415.06;5071134;28;20204;-64
2023/06/30 04:34:31;;;;;;;0.37;0.37;;;;;;;21.36;85.92;99414.06;5071039;28;20215;-65
2023/06/30 04:37:00;;;;;;;0.70;0.70;;;;;;;21.54;82.66;99416.25;5070999;28;20210;-64
2023/06/30 04:39:28;;;;;;;0.60;0.60;;;;;;;21.61;81.33;99410.47;5070986;28;20203;-65
2023/06/30 04:41:54;;;;;;;0.47;0.47;;;;;;;21.73;80.51;99412.16;5071000;28;20195;-64
2023/06/30 04:44:21;;;;;;;0.80;0.80;;;;;;;21.87;79.55;99403.28;5070667;28;20203;-65
2023/06/30 04:46:48;;;;;;;0.73;0.73;;;;;;;21.96;79.05;99416.50;5071169;28;20195;-64
2023/06/30 04:49:14;;;;;;;0.50;0.50;;;;;;;21.97;77.69;99410.31;5071048;28;20744;-65
2023/06/30 04:51:41;;;;;;;0.70;0.70;;;;;;;22.08;79.16;99412.09;5073908;28;20199;-65
2023/06/30 04:54:09;;;;;;;3.30;0.83;;;;;;;22.19;78.90;99413.88;5077491;28;20268;-65
2023/06/30 04:56:36;;;;;;;0.70;0.70;;;;;;;22.29;78.67;99412.22;5077449;28;20200;-65
2023/06/30 04:59:03;;;;;;;0.80;0.80;;;;;;;22.40;78.32;99404.38;5077414;28;20195;-65
2023/06/30 05:01:31;;;;;;;0.50;0.50;;;;;;;22.59;78.16;99398.50;5077004;28;20195;-65
2023/06/30 05:03:58;;;;;;;0.50;0.50;;;;;;;22.90;77.64;99413.44;5077414;28;20206;-65
2023/06/30 05:06:25;;;;;;;0.70;0.70;;;;;;;23.04;76.10;99407.13;5077735;28;20660;-65
2023/06/30 05:08:52;;;;;;;0.60;0.60;;;;;;;23.30;76.90;99405.78;5077462;28;20247;-65
2023/06/30 05:11:20;;;;;;;0.83;0.60;;;;;;;23.55;71.80;99407.25;5077494;28;20208;-65
2023/06/30 05:13:47;;;;;;;0.97;0.97;;;;;;;23.57;71.62;99406.16;5077792;28;20664;-65
2023/06/30 05:16:14;;;;;;;0.70;0.70;;;;;;;23.64;71.01;99402.09;5077519;28;20196;-65
2023/06/30 05:18:40;;;;;;;0.40;0.40;;;;;;;23.77;72.43;99405.31;5077318;28;20196;-66
2023/06/30 05:21:08;;;;;;;0.70;0.70;;;;;;;24.04;69.38;99410.81;5077493;28;20192;-65
2023/06/30 05:23:35;;;;;;;0.50;0.50;;;;;;;24.02;67.92;99402.28;5077279;28;20234;-65
2023/06/30 05:26:02;;;;;;;0.80;0.80;;;;;;;24.33;68.97;99410.16;5077434;28;20208;-65
2023/06/30 05:28:30;;;;;;;0.33;0.33;;;;;;;24.58;65.33;99409.69;5077024;28;20235;-65
2023/06/30 05:30:57;;;;;;;0.60;0.60;;;;;;;24.74;64.88;99414.41;5077648;28;20192;-65
2023/06/30 05:33:23;;;;;;;0.60;0.60;;;;;;;24.92;61.41;99412.78;5077380;28;20648;-65
2023/06/30 05:35:50;;;;;;;0.77;0.77;;;;;;;24.95;63.73;99413.34;5077158;28;20250;-65
2023/06/30 05:38:17;;;;;;;1.03;1.03;;;;;;;25.26;62.76;99411.44;5077238;28;20199;-65
2023/06/30 05:40:45;;;;;;;0.77;0.77;;;;;;;25.61;60.42;99420.53;5077168;28;20188;-65
2023/06/30 05:43:12;;;;;;;1.00;1.00;;;;;;;25.81;57.54;99419.53;5077264;28;20200;-65
2023/06/30 05:45:40;;;;;;;0.60;0.60;;;;;;;25.93;57.76;99419.22;5077173;28;20210;-65
2023/06/30 05:48:07;;;;;;;0.60;0.60;;;;;;;26.11;56.60;99406.16;5073232;28;20200;-65
2023/06/30 05:50:33;;;;;;;0.80;0.70;;;;;;;26.35;56.62;99403.06;5077144;28;20629;-65
2023/06/30 05:53:00;;;;;;;0.63;0.60;;;;;;;26.51;55.88;99411.13;5077102;28;20206;-65
2023/06/30 05:55:27;;;;;;;1.30;0.70;;;;;;;26.78;55.20;99421.63;5077058;28;20196;-65
2023/06/30 05:57:54;;;;;;;0.77;0.77;;;;;;;26.97;54.32;99413.63;5077054;28;20199;-65
2023/06/30 06:00:23;;;;;;;0.53;0.53;;;;;;;27.07;53.33;99418.81;5076971;28;20200;-65
2023/06/30 06:02:52;;;;;;;0.60;0.60;;;;;;;27.22;53.66;99422.56;5074594;28;20226;-65
2023/06/30 06:05:18;;;;;;;0.63;0.63;;;;;;;27.35;54.97;99416.91;5073587;28;20206;-65
2023/06/30 06:07:45;;;;;;;0.70;0.70;;;;;;;27.54;52.49;99425.50;5073613;28;20211;-65
2023/06/30 06:10:12;;;;;;;0.63;0.63;;;;;;;27.54;50.69;99414.13;5073894;28;20216;-65
2023/06/30 06:12:40;;;;;;;2.67;0.53;;;;;;;27.66;50.81;99406.84;5073838;28;20273;-65
2023/06/30 06:15:10;;;;;;;0.70;0.70;;;;;;;27.97;50.58;99429.91;5072878;28;20219;-65
2023/06/30 06:17:37;;;;;;;1.23;0.80;;;;;;;28.21;50.27;99426.59;5073634;28;20310;-65
2023/06/30 06:20:06;;;;;;;0.60;0.60;;;;;;;28.35;53.50;99419.91;5073427;28;20195;-65
2023/06/30 06:22:33;;;;;;;0.70;0.70;;;;;;;28.66;49.69;99418.38;5073690;28;20195;-65
2023/06/30 06:24:59;;;;;;;0.70;0.70;;;;;;;28.96;50.20;99424.91;5073235;28;20712;-65
2023/06/30 06:27:28;;;;;;;0.88;0.65;;;;;;;29.12;48.65;99425.75;5073536;28;20614;-65
2023/06/30 06:29:55;;;;;;;0.60;0.60;;;;;;;29.37;47.12;99415.25;5073018;28;20220;-65
2023/06/30 06:32:22;;;;;;;0.47;0.47;;;;;;;29.49;45.84;99413.91;5073478;28;20286;-65
2023/06/30 06:34:49;;;;;;;0.57;0.40;;;;;;;29.33;45.09;99419.19;5073095;28;20203;-65
2023/06/30 06:37:17;;;;;;;0.93;0.55;;;;;;;29.33;47.10;99419.19;5073353;28;20214;-66
2023/06/30 06:39:44;;;;;;;0.50;0.50;;;;;;;29.40;45.83;99410.47;5073254;28;20192;-66
2023/06/30 06:42:13;;;;;;;0.63;0.63;;;;;;;29.56;49.21;99414.91;5072828;28;20203;-65
2023/06/30 06:44:40;;;;;;;0.50;0.50;;;;;;;29.76;46.48;99399.50;5073125;28;20207;-65
2023/06/30 06:47:58;;;;;;;0.70;0.70;;;;;;;30.04;47.63;99409.56;5072672;28;20192;-66
2023/06/30 06:50:26;;;;;;;0.30;0.30;;;;;;;30.13;44.62;99413.81;5010634;28;20230;-66
2023/06/30 06:52:54;;;;;;;0.68;0.68;;;;;;;30.17;44.21;99399.25;5010763;28;20198;-66
2023/06/30 06:55:20;;;;;;;0.80;0.80;;;;;;;30.08;45.31;99392.31;5038739;28;20212;-66
2023/06/30 06:57:48;;;;;;;0.65;0.65;;;;;;;29.93;42.61;99412.53;5072809;28;20254;-65
2023/06/30 07:00:18;;;;;;;0.40;0.40;;;;;;;29.87;44.29;99410.56;5072360;28;20196;-65
2023/06/30 07:02:45;;;;;;;0.60;0.60;;;;;;;29.95;43.55;99415.84;5072678;28;20200;-66
2023/06/30 07:05:12;;;;;;;0.60;0.60;;;;;;;29.89;45.45;99413.88;5072583;28;20203;-65
2023/06/30 07:07:39;;;;;;;1.05;0.90;;;;;;;30.12;42.94;99412.16;5072805;28;20644;-65
2023/06/30 07:10:08;;;;;;;0.60;0.60;;;;;;;30.28;41.31;99399.84;5072070;28;20235;-65
2023/06/30 07:12:35;;;;;;;0.70;0.70;;;;;;;30.47;42.36;99408.22;5072489;28;20199;-66
2023/06/30 07:15:02;;;;;;;1.17;0.50;;;;;;;30.61;41.23;99402.22;5072093;28;20192;-65
2023/06/30 07:17:29;;;;;;;0.52;0.52;;;;;;;30.91;41.60;99405.03;5072527;28;20227;-65
2023/06/30 07:19:55;;;;;;;0.65;0.65;;;;;;;30.87;42.92;99407.19;5072282;28;20211;-66
2023/06/30 07:22:22;;;;;;;0.65;0.63;;;;;;;30.94;41.96;99404.66;5072394;28;20200;-66
2023/06/30 07:24:49;;;;;;;0.60;0.60;;;;;;;31.09;40.14;99406.41;5071985;28;20200;-65
2023/06/30 07:27:17;;;;;;;0.50;0.50;;;;;;;31.09;41.82;99411.69;5071982;28;20196;-65
2023/06/30 07:29:44;;;;;;;0.85;0.70;;;;;;;31.03;41.76;99401.81;5071998;28;20231;-66
2023/06/30 07:32:11;;;;;;;0.47;0.47;;;;;;;31.11;40.67;99403.59;5072233;28;20200;-65
2023/06/30 07:34:37;;;;;;;0.70;0.70;;;;;;;31.08;41.31;99401.28;5068607;28;20267;-65
2023/06/30 07:37:05;;;;;;;0.50;0.50;;;;;;;31.28;43.71;99399.78;5071500;28;20668;-66
2023/06/30 07:39:34;;;;;;;0.40;0.40;;;;;;;31.40;42.48;99397.56;5072142;28;20286;-65
2023/06/30 07:42:01;;;;;;;0.55;0.55;;;;;;;31.54;40.50;99399.41;5071823;28;20257;-66
2023/06/30 07:44:29;;;;;;;0.70;0.70;;;;;;;31.72;39.29;99395.44;5071957;28;20576;-65
2023/06/30 07:46:56;;;;;;;0.63;0.63;;;;;;;31.84;40.37;99402.94;5071655;28;20204;-66
2023/06/30 07:49:23;;;;;;;0.50;0.50;;;;;;;31.93;39.97;99402.66;5071361;28;20211;-66
2023/06/30 07:51:50;;;;;;;0.80;0.80;;;;;;;32.04;39.65;99394.31;5071535;28;20284;-66
2023/06/30 07:54:17;;;;;;;0.50;0.50;;;;;;;31.85;39.49;99397.47;5071817;28;20636;-65
2023/06/30 07:56:45;;;;;;;0.57;0.57;;;;;;;31.72;40.37;99391.97;5071870;28;20196;-65
2023/06/30 07:59:12;;;;;;;0.47;0.47;;;;;;;31.71;40.04;99395.63;5071457;28;20200;-65
2023/06/30 08:01:40;;;;;;;0.50;0.50;;;;;;;31.59;39.45;99397.06;5071690;28;20295;-65
2023/06/30 08:04:07;;;;;;;0.50;0.50;;;;;;;31.48;39.30;99389.50;5071809;28;20207;-64
2023/06/30 08:06:34;;;;;;;0.50;0.50;;;;;;;31.64;40.03;99389.38;5071467;28;20257;-65
2023/06/30 08:09:00;;;;;;;0.50;0.50;;;;;;;31.78;39.47;99396.53;5071582;28;20215;-65
2023/06/30 08:11:27;;;;;;;0.60;0.60;;;;;;;31.86;40.24;99391.13;5071475;28;20851;-65
2023/06/30 08:13:55;;;;;;;0.70;0.70;;;;;;;32.06;39.05;99386.97;5071535;28;20671;-64
2023/06/30 08:16:22;;;;;;;0.50;0.50;;;;;;;32.11;38.61;99375.81;5071116;28;20212;-65
2023/06/30 08:18:50;;;;;;;0.38;0.38;;;;;;;32.23;39.07;99388.44;5071421;28;20272;-65
2023/06/30 08:21:17;;;;;;;0.70;0.70;;;;;;;32.37;36.15;99385.94;5071266;28;20202;-65
2023/06/30 08:23:44;;;;;;;0.45;0.45;;;;;;;32.14;35.15;99381.59;5071327;28;20221;-65
2023/06/30 08:26:10;;;;;;;0.77;0.55;;;;;;;32.20;37.29;99380.84;5070662;28;20207;-65
2023/06/30 08:28:37;;;;;;;0.40;0.40;;;;;;;32.38;38.08;99363.69;5070991;28;20227;-64
2023/06/30 08:31:04;;;;;;;0.60;0.60;;;;;;;32.51;37.76;99372.63;5071228;28;20215;-64
2023/06/30 08:33:31;;;;;;;0.50;0.47;;;;;;;32.60;37.81;99370.72;5071100;28;20199;-65
2023/06/30 08:35:59;;;;;;;0.50;0.50;;;;;;;32.71;37.96;99362.25;5071212;28;20208;-64
2023/06/30 08:38:26;;;;;;;0.50;0.50;;;;;;;32.74;35.74;99367.19;5070879;28;20287;-65
2023/06/30 08:40:53;;;;;;;0.50;0.50;;;;;;;32.56;37.50;99358.81;5071114;28;20630;-64
2023/06/30 08:43:22;;;;;;;0.40;0.40;;;;;;;32.36;37.30;99368.38;5070819;28;20204;-64
2023/06/30 08:45:53;;;;;;;0.52;0.52;;;;;;;32.45;38.02;99361.94;5070688;28;20200;-64
2023/06/30 08:48:20;;;;;;;0.40;0.40;;;;;;;31.98;37.51;99357.88;5071025;28;20204;-64
2023/06/30 08:50:48;;;;;;;0.47;0.47;;;;;;;32.20;36.21;99359.63;5070754;28;20224;-65
2023/06/30 08:53:19;;;;;;;0.45;0.45;;;;;;;32.32;36.94;99365.25;5071025;28;20196;-64
2023/06/30 08:55:46;;;;;;;0.50;0.50;;;;;;;32.22;35.41;99356.75;5071037;28;20654;-64
2023/06/30 08:58:13;;;;;;;0.40;0.40;;;;;;;31.96;37.61;99351.09;5071039;28;20192;-64
2023/06/30 09:00:40;;;;;;;0.70;0.70;;;;;;;32.01;36.87;99354.03;5070809;28;20283;-64
2023/06/30 09:03:08;;;;;;;0.50;0.50;;;;;;;32.12;35.82;99354.41;5071343;28;20203;-64
2023/06/30 09:05:37;;;;;;;0.40;0.40;;;;;;;32.17;37.39;99349.38;5070890;28;20200;-64
2023/06/30 09:08:10;;;;;;;0.50;0.50;;;;;;;32.11;33.45;99352.78;5070980;28;20223;-65
2023/06/30 09:10:39;;;;;;;0.30;0.30;;;;;;;32.10;34.46;99343.16;5070582;28;20219;-64
2023/06/30 09:13:07;;;;;;;3.13;0.55;;;;;;;32.11;34.39;99336.88;5071160;28;20278;-65
2023/06/30 09:15:34;;;;;;;0.28;0.28;;;;;;;32.13;36.33;99336.66;5070837;28;20744;-64
2023/06/30 09:18:01;;;;;;;0.30;0.30;;;;;;;32.23;34.55;99340.69;5071023;28;20196;-64
2023/06/30 09:20:28;;;;;;;0.30;0.30;;;;;;;32.10;35.58;99337.88;5070687;28;20201;-65
2023/06/30 09:22:55;;;;;;;0.50;0.50;;;;;;;32.15;35.67;99327.50;5070832;28;20668;-64
2023/06/30 09:25:42;;;;;;;0.35;0.35;;;;;;;32.09;36.38;99322.94;5070702;28;20578;-65
2023/06/30 09:28:14;;;;;;;0.25;0.25;;;;;;;31.92;35.82;99318.84;5066733;28;20675;-64
2023/06/30 09:30:44;;;;;;;0.35;0.35;;;;;;;32.11;37.72;99322.78;5070715;28;20727;-64
2023/06/30 09:33:14;;;;;;;1.55;0.38;;;;;;;32.05;38.26;99319.00;5071064;28;20204;-65
2023/06/30 09:35:42;;;;;;;0.40;0.40;;;;;;;31.99;36.53;99314.41;5070438;28;20204;-64
2023/06/30 09:38:10;;;;;;;0.50;0.50;;;;;;;32.14;35.21;99304.66;5072675;28;20195;-64
2023/06/30 09:40:39;;;;;;;0.30;0.30;;;;;;;32.22;34.92;99304.53;5074582;28;20231;-65
2023/06/30 09:43:07;;;;;;;0.43;0.43;;;;;;;32.20;35.07;99293.28;5069260;28;20579;-65
2023/06/30 09:45:35;;;;;;;0.45;0.45;;;;;;;32.23;35.80;99300.06;5074172;28;20239;-64
2023/06/30 09:48:01;;;;;;;0.30;0.30;;;;;;;32.42;37.84;99295.97;5074245;28;20211;-64
2023/06/30 09:50:31;;;;;;;0.35;0.35;;;;;;;32.53;34.94;99295.47;5074114;28;20219;-64
2023/06/30 09:52:58;;;;;;;0.50;0.50;;;;;;;32.05;32.16;99292.50;5073049;28;20232;-64
2023/06/30 09:55:25;;;;;;;0.35;0.30;;;;;;;31.90;33.30;99282.88;5074291;28;20204;-63
2023/06/30 09:57:56;;;;;;;0.30;0.28;;;;;;;31.32;33.06;99294.28;5073888;28;20689;-64
2023/06/30 10:00:25;;;;;;;0.40;0.40;;;;;;;31.45;35.03;99275.94;5074053;28;20204;-64
2023/06/30 10:03:03;;;;;;;0.52;0.52;;;;;;;31.63;33.57;99284.38;5073644;28;20200;-64
2023/06/30 10:05:30;;;;;;;0.73;0.40;;;;;;;31.33;33.61;99280.88;5073863;28;20291;-64
2023/06/30 10:07:58;;;;;;;0.55;0.40;;;;;;;31.59;34.55;99273.34;5073683;28;20289;-65
2023/06/30 10:10:26;;;;;;;0.43;0.43;;;;;;;31.75;36.83;99280.25;5073906;28;20220;-64
2023/06/30 10:12:56;;;;;;;0.50;0.50;;;;;;;31.89;35.58;99271.44;5073437;28;20192;-64
2023/06/30 10:15:23;;;;;;;0.40;0.40;;;;;;;31.80;33.00;99261.97;5073967;28;20683;-64
2023/06/30 10:17:50;;;;;;;0.40;0.40;;;;;;;31.84;34.02;99267.72;5073821;28;20215;-64
2023/06/30 10:20:18;;;;;;;0.40;0.40;;;;;;;32.09;34.02;99256.63;5074004;28;20196;-64
2023/06/30 10:22:45;;;;;;;0.30;0.30;;;;;;;31.97;33.89;99244.00;5073644;28;20196;-65
2023/06/30 10:25:15;;;;;;;0.32;0.30;;;;;;;32.25;34.49;99255.56;5073573;28;20228;-64
2023/06/30 10:27:43;;;;;;;0.30;0.30;;;;;;;32.38;34.03;99258.38;5073227;28;20211;-65
2023/06/30 10:30:13;;;;;;;0.30;0.30;;;;;;;32.64;33.25;99249.84;5073364;28;20207;-65
2023/06/30 10:32:40;;;;;;;0.40;0.40;;;;;;;32.65;32.65;99254.16;5073613;28;20654;-64
2023/06/30 10:35:09;;;;;;;0.35;0.35;;;;;;;32.65;29.73;99252.34;5073268;28;20270;-65
2023/06/30 10:37:36;;;;;;;0.32;0.32;;;;;;;32.59;30.80;99242.47;5073370;28;20204;-64
2023/06/30 10:40:07;;;;;;;0.30;0.30;;;;;;;32.71;33.41;99242.78;5073164;28;20207;-64
2023/06/30 10:42:37;;;;;;;0.38;0.38;;;;;;;32.44;31.25;99243.53;5073471;28;20633;-64
2023/06/30 10:45:05;;;;;;;0.32;0.30;;;;;;;32.24;31.39;99238.84;5073230;28;20282;-65
2023/06/30 10:47:39;;;;;;;0.30;0.30;;;;;;;32.35;30.73;99239.34;5073161;28;20274;-64
2023/06/30 10:50:13;;;;;;;0.25;0.25;;;;;;;32.31;30.20;99227.50;5072424;28;20282;-64
2023/06/30 10:52:49;;;;;;;0.30;0.30;;;;;;;32.18;30.04;99234.28;5073063;28;20721;-64
2023/06/30 10:55:18;;;;;;;0.25;0.25;;;;;;;32.10;30.52;99237.06;5072920;28;20257;-64
2023/06/30 10:57:50;;;;;;;0.40;0.40;;;;;;;32.33;30.60;99214.84;5072946;28;20192;-64
2023/06/30 11:00:18;;;;;;;0.30;0.30;;;;;;;32.47;31.59;99227.22;5072768;28;20235;-64
2023/06/30 11:02:50;;;;;;;0.30;0.30;;;;;;;32.56;32.67;99223.44;5072840;28;20196;-64
2023/06/30 11:05:22;;;;;;;0.30;0.30;;;;;;;32.37;31.67;99213.47;5072900;28;20257;-63
2023/06/30 11:07:52;;;;;;;0.30;0.30;;;;;;;32.53;32.78;99214.03;5073013;28;20576;-64
2023/06/30 11:10:34;;;;;;;0.30;0.30;;;;;;;32.79;32.02;99205.47;5072808;28;20283;-64
2023/06/30 11:13:01;;;;;;;0.30;0.30;;;;;;;33.05;33.52;99207.50;5072624;28;20192;-64
2023/06/30 11:15:34;;;;;;;0.43;0.43;;;;;;;33.24;33.95;99198.84;5072634;28;20664;-64
2023/06/30 11:18:05;;;;;;;0.50;0.50;;;;;;;32.88;28.87;99204.31;5072425;28;20265;-63
2023/06/30 11:20:32;;;;;;;0.35;0.35;;;;;;;32.74;30.20;99199.91;5072681;28;20295;-64
2023/06/30 11:23:01;;;;;;;0.25;0.25;;;;;;;32.30;30.68;99199.31;5072268;28;20204;-64
2023/06/30 11:25:29;;;;;;;0.40;0.40;;;;;;;32.39;30.89;99193.69;5072357;28;20253;-64
2023/06/30 11:27:57;;;;;;;0.30;0.30;;;;;;;32.41;31.56;99169.63;5072213;28;20253;-65
2023/06/30 11:30:24;;;;;;;0.30;0.30;;;;;;;32.49;29.62;99170.28;5070893;28;20679;-65
2023/06/30 11:32:56;;;;;;;0.30;0.30;;;;;;;32.71;30.85;99181.72;5072268;28;20257;-64
2023/06/30 11:35:26;;;;;;;0.38;0.38;;;;;;;32.81;30.09;99176.91;5072079;28;20291;-65